sensor_id;sensor_type;location;lat;lon;timestamp;P1;durP1;ratioP1;P2;durP2;ratioP2
65835;SDS011;52595;51.608;7.216;2023-06-14T00:02:12;8.13;;;4.68;;
65835;SDS011;52595;51.608;7.216;2023-06-14T00:04:38;7.15;;;4.50;;
65835;SDS011;52595;51.608;7.216;2023-06-14T00:07:06;7.22;;;4.30;;
65835;SDS011;52595;51.608;7.216;2023-06-14T00:09:35;10.90;;;4.63;;
65835;SDS011;52595;51.608;7.216;2023-06-14T00:12:01;7.97;;;4.90;;
65835;SDS011;52595;51.608;7.216;2023-06-14T00:14:26;6.80;;;4.50;;
65835;SDS011;52595;51.608;7.216;2023-06-14T00:16:51;7.63;;;4.60;;
65835;SDS011;52595;51.608;7.216;2023-06-14T00:19:23;11.32;;;4.55;;
65835;SDS011;52595;51.608;7.216;2023-06-14T00:21:49;6.93;;;4.53;;
65835;SDS011;52595;51.608;7.216;2023-06-14T00:24:16;6.25;;;4.50;;
65835;SDS011;52595;51.608;7.216;2023-06-14T00:26:42;8.43;;;4.25;;
65835;SDS011;52595;51.608;7.216;2023-06-14T00:29:07;7.68;;;4.45;;
65835;SDS011;52595;51.608;7.216;2023-06-14T00:31:33;5.28;;;4.25;;
65835;SDS011;52595;51.608;7.216;2023-06-14T00:33:58;8.15;;;4.22;;
65835;SDS011;52595;51.608;7.216;2023-06-14T00:36:23;7.18;;;4.45;;
65835;SDS011;52595;51.608;7.216;2023-06-14T00:38:49;8.55;;;4.50;;
65835;SDS011;52595;51.608;7.216;2023-06-14T00:41:14;9.45;;;4.90;;
65835;SDS011;52595;51.608;7.216;2023-06-14T00:43:40;6.68;;;4.40;;
65835;SDS011;52595;51.608;7.216;2023-06-14T00:46:05;6.68;;;4.45;;
65835;SDS011;52595;51.608;7.216;2023-06-14T00:48:30;7.65;;;4.13;;
65835;SDS011;52595;51.608;7.216;2023-06-14T00:50:56;8.60;;;4.40;;
65835;SDS011;52595;51.608;7.216;2023-06-14T00:53:23;7.40;;;4.53;;
65835;SDS011;52595;51.608;7.216;2023-06-14T00:55:50;6.78;;;3.90;;
65835;SDS011;52595;51.608;7.216;2023-06-14T00:58:15;6.53;;;4.05;;
65835;SDS011;52595;51.608;7.216;2023-06-14T01:00:41;13.80;;;4.03;;
65835;SDS011;52595;51.608;7.216;2023-06-14T01:03:07;9.52;;;4.10;;
65835;SDS011;52595;51.608;7.216;2023-06-14T01:05:32;7.03;;;4.30;;
65835;SDS011;52595;51.608;7.216;2023-06-14T01:11:01;13.13;;;3.90;;
65835;SDS011;52595;51.608;7.216;2023-06-14T01:13:40;7.28;;;3.95;;
65835;SDS011;52595;51.608;7.216;2023-06-14T01:16:10;5.00;;;3.53;;
65835;SDS011;52595;51.608;7.216;2023-06-14T01:18:36;6.88;;;3.90;;
65835;SDS011;52595;51.608;7.216;2023-06-14T01:21:02;9.20;;;4.20;;
65835;SDS011;52595;51.608;7.216;2023-06-14T01:23:31;7.70;;;3.72;;
65835;SDS011;52595;51.608;7.216;2023-06-14T01:25:58;10.35;;;3.67;;
65835;SDS011;52595;51.608;7.216;2023-06-14T01:28:24;8.82;;;4.18;;
65835;SDS011;52595;51.608;7.216;2023-06-14T01:30:52;6.95;;;3.67;;
65835;SDS011;52595;51.608;7.216;2023-06-14T01:33:20;5.90;;;3.97;;
65835;SDS011;52595;51.608;7.216;2023-06-14T01:35:48;10.70;;;4.03;;
65835;SDS011;52595;51.608;7.216;2023-06-14T01:38:15;7.22;;;3.88;;
65835;SDS011;52595;51.608;7.216;2023-06-14T01:40:43;9.45;;;3.60;;
65835;SDS011;52595;51.608;7.216;2023-06-14T01:43:10;7.03;;;3.80;;
65835;SDS011;52595;51.608;7.216;2023-06-14T01:45:38;7.70;;;3.67;;
65835;SDS011;52595;51.608;7.216;2023-06-14T01:48:05;5.70;;;3.63;;
65835;SDS011;52595;51.608;7.216;2023-06-14T01:50:31;5.43;;;3.72;;
65835;SDS011;52595;51.608;7.216;2023-06-14T01:52:56;5.70;;;3.65;;
65835;SDS011;52595;51.608;7.216;2023-06-14T01:55:22;7.32;;;3.67;;
65835;SDS011;52595;51.608;7.216;2023-06-14T01:57:49;10.15;;;3.60;;
65835;SDS011;52595;51.608;7.216;2023-06-14T02:00:15;6.82;;;3.78;;
65835;SDS011;52595;51.608;7.216;2023-06-14T02:02:43;8.90;;;3.70;;
65835;SDS011;52595;51.608;7.216;2023-06-14T02:05:08;6.10;;;3.70;;
65835;SDS011;52595;51.608;7.216;2023-06-14T02:07:35;5.85;;;3.83;;
65835;SDS011;52595;51.608;7.216;2023-06-14T02:10:01;6.78;;;3.60;;
65835;SDS011;52595;51.608;7.216;2023-06-14T02:12:26;8.23;;;3.67;;
65835;SDS011;52595;51.608;7.216;2023-06-14T02:14:51;6.68;;;3.70;;
65835;SDS011;52595;51.608;7.216;2023-06-14T02:17:17;5.60;;;3.55;;
65835;SDS011;52595;51.608;7.216;2023-06-14T02:19:42;8.02;;;3.80;;
65835;SDS011;52595;51.608;7.216;2023-06-14T02:22:08;7.60;;;3.60;;
65835;SDS011;52595;51.608;7.216;2023-06-14T02:24:33;5.75;;;3.88;;
65835;SDS011;52595;51.608;7.216;2023-06-14T02:26:59;11.23;;;3.75;;
65835;SDS011;52595;51.608;7.216;2023-06-14T02:29:25;6.25;;;4.00;;
65835;SDS011;52595;51.608;7.216;2023-06-14T02:31:50;5.45;;;3.60;;
65835;SDS011;52595;51.608;7.216;2023-06-14T02:34:16;8.23;;;3.80;;
65835;SDS011;52595;51.608;7.216;2023-06-14T02:36:45;6.82;;;3.80;;
65835;SDS011;52595;51.608;7.216;2023-06-14T02:39:12;7.90;;;3.75;;
65835;SDS011;52595;51.608;7.216;2023-06-14T02:41:38;5.25;;;3.30;;
65835;SDS011;52595;51.608;7.216;2023-06-14T02:44:03;8.35;;;3.70;;
65835;SDS011;52595;51.608;7.216;2023-06-14T02:46:29;7.28;;;3.60;;
65835;SDS011;52595;51.608;7.216;2023-06-14T02:48:55;4.82;;;3.35;;
65835;SDS011;52595;51.608;7.216;2023-06-14T02:51:20;9.52;;;3.85;;
65835;SDS011;52595;51.608;7.216;2023-06-14T02:53:45;7.95;;;3.50;;
65835;SDS011;52595;51.608;7.216;2023-06-14T02:56:11;7.97;;;3.70;;
65835;SDS011;52595;51.608;7.216;2023-06-14T02:58:37;6.93;;;3.60;;
65835;SDS011;52595;51.608;7.216;2023-06-14T03:01:04;6.50;;;3.30;;
65835;SDS011;52595;51.608;7.216;2023-06-14T03:03:30;5.30;;;3.53;;
65835;SDS011;52595;51.608;7.216;2023-06-14T03:05:56;7.65;;;3.60;;
65835;SDS011;52595;51.608;7.216;2023-06-14T03:08:21;7.03;;;3.50;;
65835;SDS011;52595;51.608;7.216;2023-06-14T03:10:52;7.10;;;3.53;;
65835;SDS011;52595;51.608;7.216;2023-06-14T03:13:18;6.72;;;3.55;;
65835;SDS011;52595;51.608;7.216;2023-06-14T03:15:47;7.47;;;3.40;;
65835;SDS011;52595;51.608;7.216;2023-06-14T03:18:14;6.53;;;3.50;;
65835;SDS011;52595;51.608;7.216;2023-06-14T03:20:40;6.22;;;3.40;;
65835;SDS011;52595;51.608;7.216;2023-06-14T03:23:08;5.45;;;3.55;;
65835;SDS011;52595;51.608;7.216;2023-06-14T03:25:33;5.88;;;3.40;;
65835;SDS011;52595;51.608;7.216;2023-06-14T03:28:00;5.72;;;3.30;;
65835;SDS011;52595;51.608;7.216;2023-06-14T03:30:26;6.55;;;3.17;;
65835;SDS011;52595;51.608;7.216;2023-06-14T03:32:52;10.00;;;3.40;;
65835;SDS011;52595;51.608;7.216;2023-06-14T03:35:18;7.95;;;3.58;;
65835;SDS011;52595;51.608;7.216;2023-06-14T03:37:44;6.68;;;3.42;;
65835;SDS011;52595;51.608;7.216;2023-06-14T03:40:10;6.22;;;3.40;;
65835;SDS011;52595;51.608;7.216;2023-06-14T03:42:38;6.57;;;3.50;;
65835;SDS011;52595;51.608;7.216;2023-06-14T03:45:05;6.90;;;3.58;;
65835;SDS011;52595;51.608;7.216;2023-06-14T03:47:31;6.43;;;3.40;;
65835;SDS011;52595;51.608;7.216;2023-06-14T03:49:56;6.47;;;3.30;;
65835;SDS011;52595;51.608;7.216;2023-06-14T03:52:22;8.00;;;3.22;;
65835;SDS011;52595;51.608;7.216;2023-06-14T03:54:48;6.18;;;3.35;;
65835;SDS011;52595;51.608;7.216;2023-06-14T03:57:14;6.20;;;3.35;;
65835;SDS011;52595;51.608;7.216;2023-06-14T03:59:40;5.22;;;3.30;;
65835;SDS011;52595;51.608;7.216;2023-06-14T04:02:06;6.88;;;3.47;;
65835;SDS011;52595;51.608;7.216;2023-06-14T04:04:34;7.15;;;3.33;;
65835;SDS011;52595;51.608;7.216;2023-06-14T04:07:00;5.03;;;3.40;;
65835;SDS011;52595;51.608;7.216;2023-06-14T04:09:28;4.88;;;3.33;;
65835;SDS011;52595;51.608;7.216;2023-06-14T04:11:55;8.20;;;3.80;;
65835;SDS011;52595;51.608;7.216;2023-06-14T04:14:21;7.07;;;3.63;;
65835;SDS011;52595;51.608;7.216;2023-06-14T04:16:47;5.78;;;3.50;;
65835;SDS011;52595;51.608;7.216;2023-06-14T04:19:13;6.47;;;3.53;;
65835;SDS011;52595;51.608;7.216;2023-06-14T04:21:38;9.55;;;3.60;;
65835;SDS011;52595;51.608;7.216;2023-06-14T04:24:04;7.78;;;3.60;;
65835;SDS011;52595;51.608;7.216;2023-06-14T04:26:30;6.40;;;3.75;;
65835;SDS011;52595;51.608;7.216;2023-06-14T04:28:58;5.80;;;3.50;;
65835;SDS011;52595;51.608;7.216;2023-06-14T04:31:28;7.15;;;3.30;;
65835;SDS011;52595;51.608;7.216;2023-06-14T04:33:55;7.60;;;3.60;;
65835;SDS011;52595;51.608;7.216;2023-06-14T04:36:21;6.40;;;3.38;;
65835;SDS011;52595;51.608;7.216;2023-06-14T04:38:47;6.95;;;3.17;;
65835;SDS011;52595;51.608;7.216;2023-06-14T04:41:14;8.23;;;3.55;;
65835;SDS011;52595;51.608;7.216;2023-06-14T04:43:41;9.43;;;3.70;;
65835;SDS011;52595;51.608;7.216;2023-06-14T04:46:07;6.97;;;3.55;;
65835;SDS011;52595;51.608;7.216;2023-06-14T04:48:39;6.68;;;3.25;;
65835;SDS011;52595;51.608;7.216;2023-06-14T04:51:05;5.47;;;3.28;;
65835;SDS011;52595;51.608;7.216;2023-06-14T04:53:34;5.93;;;3.40;;
65835;SDS011;52595;51.608;7.216;2023-06-14T04:56:00;7.95;;;3.20;;
65835;SDS011;52595;51.608;7.216;2023-06-14T04:58:26;8.27;;;3.38;;
65835;SDS011;52595;51.608;7.216;2023-06-14T05:00:52;5.25;;;3.20;;
65835;SDS011;52595;51.608;7.216;2023-06-14T05:03:18;7.18;;;3.53;;
65835;SDS011;52595;51.608;7.216;2023-06-14T05:05:46;6.75;;;3.30;;
65835;SDS011;52595;51.608;7.216;2023-06-14T05:08:11;7.03;;;3.28;;
65835;SDS011;52595;51.608;7.216;2023-06-14T05:10:37;8.27;;;3.30;;
65835;SDS011;52595;51.608;7.216;2023-06-14T05:13:02;7.40;;;3.33;;
65835;SDS011;52595;51.608;7.216;2023-06-14T05:15:28;6.47;;;3.22;;
65835;SDS011;52595;51.608;7.216;2023-06-14T05:17:54;9.27;;;3.20;;
65835;SDS011;52595;51.608;7.216;2023-06-14T05:20:23;5.75;;;3.63;;
65835;SDS011;52595;51.608;7.216;2023-06-14T05:22:50;6.88;;;3.38;;
65835;SDS011;52595;51.608;7.216;2023-06-14T05:25:18;4.72;;;3.15;;
65835;SDS011;52595;51.608;7.216;2023-06-14T05:27:44;4.80;;;3.00;;
65835;SDS011;52595;51.608;7.216;2023-06-14T05:30:09;8.10;;;3.55;;
65835;SDS011;52595;51.608;7.216;2023-06-14T05:32:35;7.38;;;3.38;;
65835;SDS011;52595;51.608;7.216;2023-06-14T05:35:01;6.28;;;3.20;;
65835;SDS011;52595;51.608;7.216;2023-06-14T05:37:26;4.82;;;3.00;;
65835;SDS011;52595;51.608;7.216;2023-06-14T05:39:51;5.13;;;3.22;;
65835;SDS011;52595;51.608;7.216;2023-06-14T05:42:17;9.13;;;3.30;;
65835;SDS011;52595;51.608;7.216;2023-06-14T05:44:42;7.57;;;2.90;;
65835;SDS011;52595;51.608;7.216;2023-06-14T05:47:07;6.47;;;3.33;;
65835;SDS011;52595;51.608;7.216;2023-06-14T05:49:33;6.15;;;3.20;;
65835;SDS011;52595;51.608;7.216;2023-06-14T05:51:58;7.75;;;3.28;;
65835;SDS011;52595;51.608;7.216;2023-06-14T05:54:23;6.18;;;3.45;;
65835;SDS011;52595;51.608;7.216;2023-06-14T05:56:49;7.95;;;3.30;;
65835;SDS011;52595;51.608;7.216;2023-06-14T05:59:14;6.82;;;3.20;;
65835;SDS011;52595;51.608;7.216;2023-06-14T06:01:40;6.13;;;3.10;;
65835;SDS011;52595;51.608;7.216;2023-06-14T06:04:05;6.50;;;3.28;;
65835;SDS011;52595;51.608;7.216;2023-06-14T06:06:31;8.15;;;3.17;;
65835;SDS011;52595;51.608;7.216;2023-06-14T06:08:57;7.55;;;3.20;;
65835;SDS011;52595;51.608;7.216;2023-06-14T06:11:23;9.55;;;3.10;;
65835;SDS011;52595;51.608;7.216;2023-06-14T06:13:48;7.13;;;3.17;;
65835;SDS011;52595;51.608;7.216;2023-06-14T06:16:14;7.90;;;3.20;;
65835;SDS011;52595;51.608;7.216;2023-06-14T06:18:40;9.50;;;3.20;;
65835;SDS011;52595;51.608;7.216;2023-06-14T06:21:05;5.22;;;3.40;;
65835;SDS011;52595;51.608;7.216;2023-06-14T06:23:31;5.70;;;3.20;;
65835;SDS011;52595;51.608;7.216;2023-06-14T06:25:56;6.72;;;2.95;;
65835;SDS011;52595;51.608;7.216;2023-06-14T06:28:22;8.82;;;3.00;;
65835;SDS011;52595;51.608;7.216;2023-06-14T06:30:47;6.88;;;3.20;;
65835;SDS011;52595;51.608;7.216;2023-06-14T06:33:13;5.43;;;3.25;;
65835;SDS011;52595;51.608;7.216;2023-06-14T06:35:39;8.30;;;3.30;;
65835;SDS011;52595;51.608;7.216;2023-06-14T06:38:04;7.30;;;3.40;;
65835;SDS011;52595;51.608;7.216;2023-06-14T06:40:30;9.10;;;3.45;;
65835;SDS011;52595;51.608;7.216;2023-06-14T06:42:55;4.43;;;2.85;;
65835;SDS011;52595;51.608;7.216;2023-06-14T06:45:21;5.18;;;3.20;;
65835;SDS011;52595;51.608;7.216;2023-06-14T06:47:48;5.50;;;3.20;;
65835;SDS011;52595;51.608;7.216;2023-06-14T06:50:13;4.65;;;2.83;;
65835;SDS011;52595;51.608;7.216;2023-06-14T06:52:39;7.65;;;3.03;;
65835;SDS011;52595;51.608;7.216;2023-06-14T06:55:04;6.65;;;3.10;;
65835;SDS011;52595;51.608;7.216;2023-06-14T06:57:30;5.07;;;3.05;;
65835;SDS011;52595;51.608;7.216;2023-06-14T06:59:56;6.47;;;2.75;;
65835;SDS011;52595;51.608;7.216;2023-06-14T07:02:22;6.28;;;3.20;;
65835;SDS011;52595;51.608;7.216;2023-06-14T07:04:47;6.07;;;2.90;;
65835;SDS011;52595;51.608;7.216;2023-06-14T07:07:12;5.15;;;2.88;;
65835;SDS011;52595;51.608;7.216;2023-06-14T07:09:38;4.82;;;3.10;;
65835;SDS011;52595;51.608;7.216;2023-06-14T07:12:03;5.88;;;2.80;;
65835;SDS011;52595;51.608;7.216;2023-06-14T07:14:29;7.93;;;3.30;;
65835;SDS011;52595;51.608;7.216;2023-06-14T07:16:55;5.00;;;2.65;;
65835;SDS011;52595;51.608;7.216;2023-06-14T07:19:21;7.28;;;2.70;;
65835;SDS011;52595;51.608;7.216;2023-06-14T07:21:46;5.05;;;2.60;;
65835;SDS011;52595;51.608;7.216;2023-06-14T07:24:12;5.47;;;2.50;;
65835;SDS011;52595;51.608;7.216;2023-06-14T07:26:37;4.18;;;2.70;;
65835;SDS011;52595;51.608;7.216;2023-06-14T07:29:02;5.03;;;2.50;;
65835;SDS011;52595;51.608;7.216;2023-06-14T07:31:28;5.63;;;2.78;;
65835;SDS011;52595;51.608;7.216;2023-06-14T07:33:53;8.05;;;2.70;;
65835;SDS011;52595;51.608;7.216;2023-06-14T07:36:19;8.52;;;2.90;;
65835;SDS011;52595;51.608;7.216;2023-06-14T07:38:45;10.18;;;2.88;;
65835;SDS011;52595;51.608;7.216;2023-06-14T07:41:11;5.22;;;2.90;;
65835;SDS011;52595;51.608;7.216;2023-06-14T07:43:36;9.95;;;3.03;;
65835;SDS011;52595;51.608;7.216;2023-06-14T07:46:02;6.10;;;2.60;;
65835;SDS011;52595;51.608;7.216;2023-06-14T07:48:27;4.22;;;3.00;;
65835;SDS011;52595;51.608;7.216;2023-06-14T07:50:53;5.75;;;2.80;;
65835;SDS011;52595;51.608;7.216;2023-06-14T07:53:18;3.75;;;2.53;;
65835;SDS011;52595;51.608;7.216;2023-06-14T07:55:43;8.10;;;2.80;;
65835;SDS011;52595;51.608;7.216;2023-06-14T07:58:09;5.68;;;2.90;;
65835;SDS011;52595;51.608;7.216;2023-06-14T08:00:35;6.47;;;2.55;;
65835;SDS011;52595;51.608;7.216;2023-06-14T08:03:01;7.13;;;2.60;;
65835;SDS011;52595;51.608;7.216;2023-06-14T08:05:27;3.72;;;2.63;;
65835;SDS011;52595;51.608;7.216;2023-06-14T08:07:53;4.72;;;2.40;;
65835;SDS011;52595;51.608;7.216;2023-06-14T08:10:19;4.38;;;2.20;;
65835;SDS011;52595;51.608;7.216;2023-06-14T08:12:45;6.32;;;2.20;;
65835;SDS011;52595;51.608;7.216;2023-06-14T08:15:10;5.50;;;2.22;;
65835;SDS011;52595;51.608;7.216;2023-06-14T08:17:36;4.60;;;2.00;;
65835;SDS011;52595;51.608;7.216;2023-06-14T08:20:02;3.90;;;1.80;;
65835;SDS011;52595;51.608;7.216;2023-06-14T08:22:29;7.93;;;2.20;;
65835;SDS011;52595;51.608;7.216;2023-06-14T08:24:57;3.63;;;2.10;;
65835;SDS011;52595;51.608;7.216;2023-06-14T08:27:23;3.80;;;2.08;;
65835;SDS011;52595;51.608;7.216;2023-06-14T08:29:48;3.17;;;1.88;;
65835;SDS011;52595;51.608;7.216;2023-06-14T08:32:13;2.97;;;2.13;;
65835;SDS011;52595;51.608;7.216;2023-06-14T08:34:39;8.23;;;2.45;;
65835;SDS011;52595;51.608;7.216;2023-06-14T08:37:04;4.80;;;1.92;;
65835;SDS011;52595;51.608;7.216;2023-06-14T08:39:31;3.67;;;1.95;;
65835;SDS011;52595;51.608;7.216;2023-06-14T08:41:57;2.63;;;1.98;;
65835;SDS011;52595;51.608;7.216;2023-06-14T08:44:23;3.25;;;2.10;;
65835;SDS011;52595;51.608;7.216;2023-06-14T08:46:48;4.57;;;2.08;;
65835;SDS011;52595;51.608;7.216;2023-06-14T08:49:16;3.60;;;1.80;;
65835;SDS011;52595;51.608;7.216;2023-06-14T08:51:42;2.38;;;1.88;;
65835;SDS011;52595;51.608;7.216;2023-06-14T08:54:09;2.25;;;1.70;;
65835;SDS011;52595;51.608;7.216;2023-06-14T08:56:37;3.00;;;1.70;;
65835;SDS011;52595;51.608;7.216;2023-06-14T08:59:03;2.80;;;1.50;;
65835;SDS011;52595;51.608;7.216;2023-06-14T09:01:36;2.53;;;1.77;;
65835;SDS011;52595;51.608;7.216;2023-06-14T09:04:02;4.25;;;1.60;;
65835;SDS011;52595;51.608;7.216;2023-06-14T09:06:30;2.85;;;1.50;;
65835;SDS011;52595;51.608;7.216;2023-06-14T09:08:56;1.73;;;1.52;;
65835;SDS011;52595;51.608;7.216;2023-06-14T09:11:22;5.45;;;1.77;;
65835;SDS011;52595;51.608;7.216;2023-06-14T09:13:49;4.32;;;1.50;;
65835;SDS011;52595;51.608;7.216;2023-06-14T09:16:15;2.45;;;1.63;;
65835;SDS011;52595;51.608;7.216;2023-06-14T09:18:43;3.45;;;1.60;;
65835;SDS011;52595;51.608;7.216;2023-06-14T09:21:10;3.42;;;1.75;;
65835;SDS011;52595;51.608;7.216;2023-06-14T09:23:37;3.85;;;1.50;;
65835;SDS011;52595;51.608;7.216;2023-06-14T09:26:24;3.67;;;1.20;;
65835;SDS011;52595;51.608;7.216;2023-06-14T09:28:49;1.70;;;1.40;;
65835;SDS011;52595;51.608;7.216;2023-06-14T09:31:18;2.55;;;1.42;;
65835;SDS011;52595;51.608;7.216;2023-06-14T09:33:45;3.35;;;1.40;;
65835;SDS011;52595;51.608;7.216;2023-06-14T09:36:16;2.72;;;1.40;;
65835;SDS011;52595;51.608;7.216;2023-06-14T09:38:51;2.85;;;1.45;;
65835;SDS011;52595;51.608;7.216;2023-06-14T09:41:18;3.38;;;1.30;;
65835;SDS011;52595;51.608;7.216;2023-06-14T09:43:43;3.53;;;1.25;;
65835;SDS011;52595;51.608;7.216;2023-06-14T09:46:11;4.32;;;1.10;;
65835;SDS011;52595;51.608;7.216;2023-06-14T09:48:37;1.73;;;1.20;;
65835;SDS011;52595;51.608;7.216;2023-06-14T09:51:07;1.38;;;1.27;;
65835;SDS011;52595;51.608;7.216;2023-06-14T09:53:35;1.20;;;1.10;;
65835;SDS011;52595;51.608;7.216;2023-06-14T09:56:02;1.40;;;1.27;;
65835;SDS011;52595;51.608;7.216;2023-06-14T09:58:28;3.20;;;1.40;;
65835;SDS011;52595;51.608;7.216;2023-06-14T10:00:55;4.25;;;1.48;;
65835;SDS011;52595;51.608;7.216;2023-06-14T10:03:25;3.35;;;1.85;;
65835;SDS011;52595;51.608;7.216;2023-06-14T10:05:53;3.03;;;1.70;;
65835;SDS011;52595;51.608;7.216;2023-06-14T10:08:26;3.00;;;1.40;;
65835;SDS011;52595;51.608;7.216;2023-06-14T10:10:53;5.03;;;1.50;;
65835;SDS011;52595;51.608;7.216;2023-06-14T10:13:20;4.13;;;1.50;;
65835;SDS011;52595;51.608;7.216;2023-06-14T10:18:46;4.00;;;1.60;;
65835;SDS011;52595;51.608;7.216;2023-06-14T10:23:51;4.10;;;1.60;;
65835;SDS011;52595;51.608;7.216;2023-06-14T10:26:20;1.58;;;1.48;;
65835;SDS011;52595;51.608;7.216;2023-06-14T10:28:54;2.35;;;1.50;;
65835;SDS011;52595;51.608;7.216;2023-06-14T10:31:22;5.55;;;1.60;;
65835;SDS011;52595;51.608;7.216;2023-06-14T10:34:04;2.83;;;1.48;;
65835;SDS011;52595;51.608;7.216;2023-06-14T10:36:29;3.40;;;1.75;;
65835;SDS011;52595;51.608;7.216;2023-06-14T10:39:10;4.75;;;1.70;;
65835;SDS011;52595;51.608;7.216;2023-06-14T10:41:40;1.95;;;1.50;;
65835;SDS011;52595;51.608;7.216;2023-06-14T10:46:38;2.47;;;1.70;;
65835;SDS011;52595;51.608;7.216;2023-06-14T10:49:04;3.97;;;1.77;;
65835;SDS011;52595;51.608;7.216;2023-06-14T10:51:30;6.07;;;1.80;;
65835;SDS011;52595;51.608;7.216;2023-06-14T10:56:37;2.90;;;1.60;;
65835;SDS011;52595;51.608;7.216;2023-06-14T10:59:02;3.10;;;1.80;;
65835;SDS011;52595;51.608;7.216;2023-06-14T11:02:12;3.45;;;1.60;;
65835;SDS011;52595;51.608;7.216;2023-06-14T11:04:20;4.60;;;1.75;;
65835;SDS011;52595;51.608;7.216;2023-06-14T11:06:46;5.60;;;1.70;;
65835;SDS011;52595;51.608;7.216;2023-06-14T11:11:41;4.47;;;1.80;;
65835;SDS011;52595;51.608;7.216;2023-06-14T11:14:08;5.25;;;1.83;;
65835;SDS011;52595;51.608;7.216;2023-06-14T11:16:35;2.95;;;1.60;;
65835;SDS011;52595;51.608;7.216;2023-06-14T11:19:01;2.95;;;1.90;;
65835;SDS011;52595;51.608;7.216;2023-06-14T11:21:28;1.98;;;1.70;;
65835;SDS011;52595;51.608;7.216;2023-06-14T11:23:56;2.70;;;1.80;;
65835;SDS011;52595;51.608;7.216;2023-06-14T11:26:25;5.07;;;1.80;;
65835;SDS011;52595;51.608;7.216;2023-06-14T11:28:54;3.30;;;1.60;;
65835;SDS011;52595;51.608;7.216;2023-06-14T11:31:21;3.77;;;1.60;;
65835;SDS011;52595;51.608;7.216;2023-06-14T11:33:49;6.95;;;1.80;;
65835;SDS011;52595;51.608;7.216;2023-06-14T11:36:15;2.22;;;1.70;;
65835;SDS011;52595;51.608;7.216;2023-06-14T11:38:40;2.78;;;1.70;;
65835;SDS011;52595;51.608;7.216;2023-06-14T11:41:06;6.15;;;1.92;;
65835;SDS011;52595;51.608;7.216;2023-06-14T11:43:31;4.22;;;1.77;;
65835;SDS011;52595;51.608;7.216;2023-06-14T11:45:58;6.90;;;1.90;;
65835;SDS011;52595;51.608;7.216;2023-06-14T11:48:35;2.78;;;1.95;;
65835;SDS011;52595;51.608;7.216;2023-06-14T11:51:04;4.10;;;1.83;;
65835;SDS011;52595;51.608;7.216;2023-06-14T11:53:30;5.53;;;2.10;;
65835;SDS011;52595;51.608;7.216;2023-06-14T11:55:55;5.57;;;2.10;;
65835;SDS011;52595;51.608;7.216;2023-06-14T11:58:22;5.65;;;2.00;;
65835;SDS011;52595;51.608;7.216;2023-06-14T12:00:50;6.88;;;2.08;;
65835;SDS011;52595;51.608;7.216;2023-06-14T12:03:16;5.55;;;2.10;;
65835;SDS011;52595;51.608;7.216;2023-06-14T12:05:42;4.70;;;1.98;;
65835;SDS011;52595;51.608;7.216;2023-06-14T12:08:08;5.30;;;2.00;;
65835;SDS011;52595;51.608;7.216;2023-06-14T12:10:40;5.90;;;2.10;;
65835;SDS011;52595;51.608;7.216;2023-06-14T12:13:09;3.03;;;2.20;;
65835;SDS011;52595;51.608;7.216;2023-06-14T12:15:35;3.15;;;1.80;;
65835;SDS011;52595;51.608;7.216;2023-06-14T12:18:01;2.95;;;1.90;;
65835;SDS011;52595;51.608;7.216;2023-06-14T12:20:29;4.70;;;2.05;;
65835;SDS011;52595;51.608;7.216;2023-06-14T12:22:57;9.70;;;2.00;;
65835;SDS011;52595;51.608;7.216;2023-06-14T12:25:35;4.70;;;2.00;;
65835;SDS011;52595;51.608;7.216;2023-06-14T12:28:05;6.13;;;2.10;;
65835;SDS011;52595;51.608;7.216;2023-06-14T12:32:57;3.15;;;2.20;;
65835;SDS011;52595;51.608;7.216;2023-06-14T12:35:22;4.65;;;2.10;;
65835;SDS011;52595;51.608;7.216;2023-06-14T12:37:48;5.30;;;2.03;;
65835;SDS011;52595;51.608;7.216;2023-06-14T12:40:13;3.78;;;2.05;;
65835;SDS011;52595;51.608;7.216;2023-06-14T12:42:39;7.50;;;2.10;;
65835;SDS011;52595;51.608;7.216;2023-06-14T12:45:06;4.90;;;2.10;;
65835;SDS011;52595;51.608;7.216;2023-06-14T12:47:32;4.25;;;2.17;;
65835;SDS011;52595;51.608;7.216;2023-06-14T12:49:57;8.70;;;2.10;;
65835;SDS011;52595;51.608;7.216;2023-06-14T12:52:23;3.60;;;2.10;;
65835;SDS011;52595;51.608;7.216;2023-06-14T12:54:48;3.03;;;1.90;;
65835;SDS011;52595;51.608;7.216;2023-06-14T12:57:13;2.38;;;2.00;;
65835;SDS011;52595;51.608;7.216;2023-06-14T12:59:39;4.15;;;2.20;;
65835;SDS011;52595;51.608;7.216;2023-06-14T13:04:37;4.40;;;2.10;;
65835;SDS011;52595;51.608;7.216;2023-06-14T13:07:03;4.22;;;2.10;;
65835;SDS011;52595;51.608;7.216;2023-06-14T13:09:29;5.40;;;2.13;;
65835;SDS011;52595;51.608;7.216;2023-06-14T13:11:54;3.88;;;2.20;;
65835;SDS011;52595;51.608;7.216;2023-06-14T13:14:19;5.28;;;2.25;;
65835;SDS011;52595;51.608;7.216;2023-06-14T13:16:45;6.43;;;2.10;;
65835;SDS011;52595;51.608;7.216;2023-06-14T13:19:11;6.03;;;2.10;;
65835;SDS011;52595;51.608;7.216;2023-06-14T13:21:36;4.30;;;2.20;;
65835;SDS011;52595;51.608;7.216;2023-06-14T13:24:01;4.75;;;2.15;;
65835;SDS011;52595;51.608;7.216;2023-06-14T13:26:27;4.47;;;2.20;;
65835;SDS011;52595;51.608;7.216;2023-06-14T13:28:52;5.15;;;2.45;;
65835;SDS011;52595;51.608;7.216;2023-06-14T13:31:18;5.47;;;2.35;;
65835;SDS011;52595;51.608;7.216;2023-06-14T13:33:43;4.45;;;2.33;;
65835;SDS011;52595;51.608;7.216;2023-06-14T13:36:08;3.90;;;2.10;;
65835;SDS011;52595;51.608;7.216;2023-06-14T13:38:35;3.35;;;2.05;;
65835;SDS011;52595;51.608;7.216;2023-06-14T13:41:00;4.32;;;2.40;;
65835;SDS011;52595;51.608;7.216;2023-06-14T13:43:26;5.75;;;2.30;;
65835;SDS011;52595;51.608;7.216;2023-06-14T13:45:51;6.40;;;2.50;;
65835;SDS011;52595;51.608;7.216;2023-06-14T13:48:16;6.15;;;2.33;;
65835;SDS011;52595;51.608;7.216;2023-06-14T13:50:42;4.57;;;3.10;;
65835;SDS011;52595;51.608;7.216;2023-06-14T13:53:07;3.22;;;2.30;;
65835;SDS011;52595;51.608;7.216;2023-06-14T13:55:33;4.50;;;2.10;;
65835;SDS011;52595;51.608;7.216;2023-06-14T13:57:58;4.25;;;2.50;;
65835;SDS011;52595;51.608;7.216;2023-06-14T14:00:23;6.80;;;2.30;;
65835;SDS011;52595;51.608;7.216;2023-06-14T14:02:49;4.22;;;2.20;;
65835;SDS011;52595;51.608;7.216;2023-06-14T14:05:15;2.88;;;2.15;;
65835;SDS011;52595;51.608;7.216;2023-06-14T14:07:41;4.20;;;2.13;;
65835;SDS011;52595;51.608;7.216;2023-06-14T14:10:07;5.65;;;2.25;;
65835;SDS011;52595;51.608;7.216;2023-06-14T14:12:33;5.18;;;2.20;;
65835;SDS011;52595;51.608;7.216;2023-06-14T14:14:59;4.18;;;2.38;;
65835;SDS011;52595;51.608;7.216;2023-06-14T14:17:24;4.13;;;2.20;;
65835;SDS011;52595;51.608;7.216;2023-06-14T14:19:50;2.80;;;2.20;;
65835;SDS011;52595;51.608;7.216;2023-06-14T14:22:15;3.33;;;2.10;;
65835;SDS011;52595;51.608;7.216;2023-06-14T14:24:41;4.15;;;2.03;;
65835;SDS011;52595;51.608;7.216;2023-06-14T14:27:06;4.55;;;2.08;;
65835;SDS011;52595;51.608;7.216;2023-06-14T14:29:32;6.95;;;2.45;;
65835;SDS011;52595;51.608;7.216;2023-06-14T14:31:58;4.90;;;2.40;;
65835;SDS011;52595;51.608;7.216;2023-06-14T14:34:24;4.18;;;2.35;;
65835;SDS011;52595;51.608;7.216;2023-06-14T14:36:50;6.57;;;2.30;;
65835;SDS011;52595;51.608;7.216;2023-06-14T14:39:15;2.90;;;2.33;;
65835;SDS011;52595;51.608;7.216;2023-06-14T14:41:41;3.47;;;2.10;;
65835;SDS011;52595;51.608;7.216;2023-06-14T14:44:06;4.72;;;2.45;;
65835;SDS011;52595;51.608;7.216;2023-06-14T14:46:32;5.68;;;2.30;;
65835;SDS011;52595;51.608;7.216;2023-06-14T14:48:58;3.72;;;2.17;;
65835;SDS011;52595;51.608;7.216;2023-06-14T14:51:24;4.68;;;2.40;;
65835;SDS011;52595;51.608;7.216;2023-06-14T14:53:49;3.13;;;2.10;;
65835;SDS011;52595;51.608;7.216;2023-06-14T14:56:15;3.65;;;2.20;;
65835;SDS011;52595;51.608;7.216;2023-06-14T14:58:40;3.55;;;2.30;;
65835;SDS011;52595;51.608;7.216;2023-06-14T15:01:06;3.53;;;2.40;;
65835;SDS011;52595;51.608;7.216;2023-06-14T15:03:32;5.90;;;2.50;;
65835;SDS011;52595;51.608;7.216;2023-06-14T15:05:57;4.15;;;2.28;;